createdAt,value
2023-05-01T00:00:48.868Z,1024.31
2023-05-01T00:01:48.860Z,1024.3
2023-05-01T00:02:48.954Z,1024.35
2023-05-01T00:03:49.107Z,1024.28
2023-05-01T00:04:48.912Z,1024.33
2023-05-01T00:05:48.865Z,1024.35
2023-05-01T00:06:48.882Z,1024.31
2023-05-01T00:07:48.879Z,1024.34
2023-05-01T00:08:48.869Z,1024.27
2023-05-01T00:09:48.871Z,1024.28
2023-05-01T00:10:48.872Z,1024.28
2023-05-01T00:11:48.866Z,1024.26
2023-05-01T00:12:48.874Z,1024.31
2023-05-01T00:13:48.879Z,1024.3
2023-05-01T00:14:48.869Z,1024.27
2023-05-01T00:15:48.866Z,1024.29
2023-05-01T00:16:48.961Z,1024.27
2023-05-01T00:17:48.901Z,1024.28
2023-05-01T00:18:48.872Z,1024.26
2023-05-01T00:19:48.880Z,1024.23
2023-05-01T00:20:48.868Z,1024.28
2023-05-01T00:21:48.917Z,1024.22
2023-05-01T00:22:48.874Z,1024.23
2023-05-01T00:23:48.869Z,1024.21
2023-05-01T00:24:48.886Z,1024.22
2023-05-01T00:25:48.869Z,1024.2
2023-05-01T00:26:48.865Z,1024.27
2023-05-01T00:27:48.864Z,1024.26
2023-05-01T00:28:48.863Z,1024.26
2023-05-01T00:29:48.880Z,1024.22
2023-05-01T00:30:48.857Z,1024.23
2023-05-01T00:31:48.930Z,1024.19
2023-05-01T00:32:48.919Z,1024.15
2023-05-01T00:33:48.869Z,1024.17
2023-05-01T00:34:48.870Z,1024.12
2023-05-01T00:35:48.869Z,1024.09
2023-05-01T00:36:49.837Z,1024.12
2023-05-01T00:37:48.875Z,1024.13
2023-05-01T00:38:48.878Z,1024.14
2023-05-01T00:39:48.884Z,1024.16
2023-05-01T00:40:48.856Z,1024.14
2023-05-01T00:41:48.865Z,1024.15
2023-05-01T00:42:48.875Z,1024.12
2023-05-01T00:43:48.920Z,1024.14
2023-05-01T00:44:48.875Z,1024.07
2023-05-01T00:45:48.911Z,1024.11
2023-05-01T00:46:48.875Z,1024.1
2023-05-01T00:47:48.914Z,1024.01
2023-05-01T00:48:48.866Z,1024.05
2023-05-01T00:49:48.893Z,1023.98
2023-05-01T00:50:48.875Z,1023.97
2023-05-01T00:51:48.869Z,1023.99
2023-05-01T00:52:48.860Z,1023.96
2023-05-01T00:53:48.878Z,1024.01
2023-05-01T00:54:48.879Z,1023.94
2023-05-01T00:55:48.873Z,1023.95
2023-05-01T00:56:48.870Z,1023.92
2023-05-01T00:57:48.864Z,1023.93
2023-05-01T00:58:48.871Z,1023.89
2023-05-01T00:59:48.870Z,1023.93
2023-05-01T01:00:48.913Z,1023.93
2023-05-01T01:01:48.864Z,1023.92
2023-05-01T01:02:48.898Z,1023.92
2023-05-01T01:03:48.871Z,1023.9
2023-05-01T01:04:49.008Z,1023.91
2023-05-01T01:05:48.873Z,1023.91
2023-05-01T01:06:49.104Z,1023.92
2023-05-01T01:07:48.857Z,1023.93
2023-05-01T01:08:48.881Z,1023.93
2023-05-01T01:09:48.879Z,1023.92
2023-05-01T01:10:48.884Z,1023.92
2023-05-01T01:11:48.864Z,1023.97
2023-05-01T01:12:48.863Z,1023.89
2023-05-01T01:13:48.863Z,1023.9
2023-05-01T01:14:48.881Z,1023.91
2023-05-01T01:15:48.866Z,1023.88
2023-05-01T01:16:48.928Z,1023.88
2023-05-01T01:17:48.895Z,1023.87
2023-05-01T01:18:48.874Z,1023.85
2023-05-01T01:19:48.868Z,1023.83
2023-05-01T01:20:48.869Z,1023.88
2023-05-01T01:21:48.862Z,1023.9
2023-05-01T01:22:48.862Z,1023.87
2023-05-01T01:23:48.876Z,1023.85
2023-05-01T01:24:48.873Z,1023.87
2023-05-01T01:25:48.873Z,1023.89
2023-05-01T01:26:48.854Z,1023.83
2023-05-01T01:27:48.866Z,1023.82
2023-05-01T01:28:48.880Z,1023.83
2023-05-01T01:29:48.882Z,1023.8
2023-05-01T01:30:48.926Z,1023.75
2023-05-01T01:31:48.873Z,1023.77
2023-05-01T01:32:48.931Z,1023.74
2023-05-01T01:33:48.869Z,1023.72
2023-05-01T01:34:48.875Z,1023.75
2023-05-01T01:35:48.860Z,1023.72
2023-05-01T01:36:48.871Z,1023.73
2023-05-01T01:37:48.865Z,1023.78
2023-05-01T01:38:48.883Z,1023.7
2023-05-01T01:39:48.889Z,1023.69
2023-05-01T01:40:48.868Z,1023.67
2023-05-01T01:41:48.864Z,1023.69
2023-05-01T01:42:48.869Z,1023.7
2023-05-01T01:43:48.869Z,1023.7
2023-05-01T01:44:48.891Z,1023.66
2023-05-01T01:45:48.884Z,1023.67
2023-05-01T01:46:48.929Z,1023.65
2023-05-01T01:47:48.915Z,1023.65
2023-05-01T01:48:48.864Z,1023.54
2023-05-01T01:49:48.873Z,1023.62
2023-05-01T01:50:48.869Z,1023.63
2023-05-01T01:51:48.889Z,1023.59
2023-05-01T01:52:48.862Z,1023.61
2023-05-01T01:53:48.879Z,1023.67
2023-05-01T01:54:48.867Z,1023.62
2023-05-01T01:55:48.864Z,1023.65
2023-05-01T01:56:48.859Z,1023.68
2023-05-01T01:57:48.875Z,1023.62
2023-05-01T01:58:48.865Z,1023.59
2023-05-01T01:59:48.892Z,1023.62
2023-05-01T02:00:48.862Z,1023.62
2023-05-01T02:01:48.897Z,1023.66
2023-05-01T02:02:48.984Z,1023.65
2023-05-01T02:03:49.149Z,1023.67
2023-05-01T02:04:48.866Z,1023.65
2023-05-01T02:05:48.865Z,1023.61
2023-05-01T02:06:48.987Z,1023.62
2023-05-01T02:07:48.865Z,1023.6
2023-05-01T02:08:48.893Z,1023.56
2023-05-01T02:09:48.872Z,1023.51
2023-05-01T02:10:48.868Z,1023.51
2023-05-01T02:11:48.865Z,1023.5
2023-05-01T02:12:48.867Z,1023.49
2023-05-01T02:13:48.860Z,1023.48
2023-05-01T02:14:48.875Z,1023.47
2023-05-01T02:15:48.941Z,1023.45
2023-05-01T02:16:48.871Z,1023.48
2023-05-01T02:17:48.916Z,1023.41
2023-05-01T02:18:48.866Z,1023.44
2023-05-01T02:19:48.875Z,1023.42
2023-05-01T02:20:48.873Z,1023.43
2023-05-01T02:21:48.858Z,1023.47
2023-05-01T02:22:48.873Z,1023.43
2023-05-01T02:23:48.879Z,1023.44
2023-05-01T02:24:48.878Z,1023.41
2023-05-01T02:25:48.867Z,1023.38
2023-05-01T02:26:48.874Z,1023.35
2023-05-01T02:27:48.896Z,1023.3
2023-05-01T02:28:48.864Z,1023.33
2023-05-01T02:29:48.880Z,1023.33
2023-05-01T02:30:48.870Z,1023.3
2023-05-01T02:31:48.953Z,1023.33
2023-05-01T02:32:48.937Z,1023.3
2023-05-01T02:33:48.865Z,1023.34
2023-05-01T02:34:48.902Z,1023.31
2023-05-01T02:35:48.880Z,1023.33
2023-05-01T02:36:48.872Z,1023.3
2023-05-01T02:37:48.883Z,1023.3
2023-05-01T02:38:48.898Z,1023.28
2023-05-01T02:39:48.871Z,1023.34
2023-05-01T02:40:48.874Z,1023.27
2023-05-01T02:41:48.866Z,1023.33
2023-05-01T02:42:48.869Z,1023.26
2023-05-01T02:43:48.870Z,1023.23
2023-05-01T02:44:48.878Z,1023.21
2023-05-01T02:45:48.877Z,1023.21
2023-05-01T02:46:48.880Z,1023.24
2023-05-01T02:47:48.911Z,1023.22
2023-05-01T02:48:48.863Z,1023.24
2023-05-01T02:49:48.877Z,1023.23
2023-05-01T02:50:48.865Z,1023.2
2023-05-01T02:51:48.866Z,1023.21
2023-05-01T02:52:48.861Z,1023.22
2023-05-01T02:53:48.885Z,1023.2
2023-05-01T02:54:48.864Z,1023.15
2023-05-01T02:55:48.865Z,1023.16
2023-05-01T02:56:48.863Z,1023.19
2023-05-01T02:57:48.878Z,1023.18
2023-05-01T02:58:48.873Z,1023.17
2023-05-01T02:59:48.885Z,1023.2
2023-05-01T03:00:48.899Z,1023.2
2023-05-01T03:01:49.021Z,1023.18
2023-05-01T03:02:48.880Z,1023.15
2023-05-01T03:03:49.009Z,1023.15
2023-05-01T03:04:49.046Z,1023.14
2023-05-01T03:05:48.867Z,1023.14
2023-05-01T03:06:48.924Z,1023.1
2023-05-01T03:07:48.867Z,1023.07
2023-05-01T03:08:48.881Z,1023.14
2023-05-01T03:09:48.876Z,1023.11
2023-05-01T03:10:48.867Z,1023.08
2023-05-01T03:11:48.875Z,1023.11
2023-05-01T03:12:48.865Z,1023.05
2023-05-01T03:13:48.873Z,1023.08
2023-05-01T03:14:48.879Z,1023.03
2023-05-01T03:15:48.878Z,1023.05
2023-05-01T03:16:48.910Z,1023.04
2023-05-01T03:17:48.912Z,1023.1
2023-05-01T03:18:48.873Z,1023.05
2023-05-01T03:19:48.884Z,1023.02
2023-05-01T03:20:48.863Z,1023.07
2023-05-01T03:21:48.918Z,1023.03
2023-05-01T03:22:48.870Z,1023.02
2023-05-01T03:23:48.886Z,1023.03
2023-05-01T03:24:48.870Z,1023.03
2023-05-01T03:25:48.867Z,1023.02
2023-05-01T03:26:48.935Z,1023.01
2023-05-01T03:27:48.875Z,1023.03
2023-05-01T03:28:48.876Z,1023.02
2023-05-01T03:29:48.880Z,1023.03
2023-05-01T03:30:48.888Z,1023.02
2023-05-01T03:31:48.966Z,1023.04
2023-05-01T03:32:48.975Z,1023.03
2023-05-01T03:33:48.963Z,1023.04
2023-05-01T03:34:48.875Z,1023.04
2023-05-01T03:35:49.087Z,1023.04
2023-05-01T03:36:48.878Z,1023.04
2023-05-01T03:37:48.917Z,1023.04
2023-05-01T03:38:48.909Z,1023.02
2023-05-01T03:39:48.960Z,1023.04
2023-05-01T03:40:48.948Z,1023.02
2023-05-01T03:41:48.924Z,1023
2023-05-01T03:42:48.904Z,1022.98
2023-05-01T03:43:48.867Z,1022.95
2023-05-01T03:44:48.991Z,1022.94
2023-05-01T03:45:48.908Z,1022.94
2023-05-01T03:46:48.875Z,1022.99
2023-05-01T03:47:48.925Z,1022.96
2023-05-01T03:48:48.878Z,1022.96
2023-05-01T03:49:48.881Z,1022.96
2023-05-01T03:50:48.862Z,1022.98
2023-05-01T03:51:48.870Z,1023.01
2023-05-01T03:52:48.861Z,1022.98
2023-05-01T03:53:48.881Z,1022.98
2023-05-01T03:54:48.874Z,1022.99
2023-05-01T03:55:48.861Z,1022.99
2023-05-01T03:56:48.862Z,1022.94
2023-05-01T03:57:48.873Z,1022.98
2023-05-01T03:58:48.877Z,1022.99
2023-05-01T03:59:48.874Z,1022.94
2023-05-01T04:00:48.871Z,1022.91
2023-05-01T04:01:48.938Z,1022.92
2023-05-01T04:02:49.113Z,1022.89
2023-05-01T04:03:48.940Z,1022.89
2023-05-01T04:04:48.876Z,1022.92
2023-05-01T04:05:48.882Z,1022.89
2023-05-01T04:06:48.911Z,1022.85
2023-05-01T04:07:48.868Z,1022.92
2023-05-01T04:08:48.880Z,1022.9
2023-05-01T04:09:48.882Z,1022.89
2023-05-01T04:10:48.877Z,1022.84
2023-05-01T04:11:48.872Z,1022.85
2023-05-01T04:12:48.875Z,1022.9
2023-05-01T04:13:48.886Z,1022.85
2023-05-01T04:14:48.883Z,1022.87
2023-05-01T04:15:48.943Z,1022.85
2023-05-01T04:16:48.873Z,1022.85
2023-05-01T04:17:48.934Z,1022.82
2023-05-01T04:18:48.908Z,1022.85
2023-05-01T04:19:48.867Z,1022.82
2023-05-01T04:20:48.866Z,1022.82
2023-05-01T04:21:48.861Z,1022.81
2023-05-01T04:22:48.864Z,1022.87
2023-05-01T04:23:48.886Z,1022.85
2023-05-01T04:24:48.881Z,1022.84
2023-05-01T04:25:48.886Z,1022.83
2023-05-01T04:26:48.875Z,1022.81
2023-05-01T04:27:48.898Z,1022.81
2023-05-01T04:28:48.869Z,1022.78
2023-05-01T04:29:48.879Z,1022.77
2023-05-01T04:30:48.911Z,1022.75
2023-05-01T04:31:48.905Z,1022.74
2023-05-01T04:32:49.003Z,1022.74
2023-05-01T04:33:48.865Z,1022.75
2023-05-01T04:34:48.886Z,1022.75
2023-05-01T04:35:48.864Z,1022.82
2023-05-01T04:36:48.877Z,1022.76
2023-05-01T04:37:48.865Z,1022.76
2023-05-01T04:38:48.886Z,1022.73
2023-05-01T04:39:48.865Z,1022.77
2023-05-01T04:40:48.871Z,1022.75
2023-05-01T04:41:48.893Z,1022.72
2023-05-01T04:42:48.869Z,1022.73
2023-05-01T04:43:48.873Z,1022.72
2023-05-01T04:44:48.869Z,1022.68
2023-05-01T04:45:48.859Z,1022.68
2023-05-01T04:46:48.899Z,1022.68
2023-05-01T04:47:48.901Z,1022.72
2023-05-01T04:48:48.885Z,1022.68
2023-05-01T04:49:48.864Z,1022.67
2023-05-01T04:50:48.867Z,1022.7
2023-05-01T04:51:48.869Z,1022.71
2023-05-01T04:52:48.859Z,1022.7
2023-05-01T04:53:48.875Z,1022.76
2023-05-01T04:54:48.877Z,1022.75
2023-05-01T04:55:48.868Z,1022.74
2023-05-01T04:56:48.866Z,1022.75
2023-05-01T04:57:48.875Z,1022.71
2023-05-01T04:58:48.879Z,1022.75
2023-05-01T04:59:48.872Z,1022.69
2023-05-01T05:00:48.872Z,1022.72
2023-05-01T05:01:48.888Z,1022.69
2023-05-01T05:02:48.937Z,1022.71
2023-05-01T05:03:50.259Z,1022.71
2023-05-01T05:04:48.876Z,1022.72
2023-05-01T05:05:48.869Z,1022.72
2023-05-01T05:06:49.005Z,1022.72
2023-05-01T05:07:48.874Z,1022.68
2023-05-01T05:08:48.882Z,1022.65
2023-05-01T05:09:48.869Z,1022.65
2023-05-01T05:10:48.876Z,1022.63
2023-05-01T05:11:48.874Z,1022.59
2023-05-01T05:12:48.873Z,1022.63
2023-05-01T05:13:48.871Z,1022.64
2023-05-01T05:14:48.878Z,1022.61
2023-05-01T05:15:48.866Z,1022.58
2023-05-01T05:16:49.023Z,1022.56
2023-05-01T05:17:48.936Z,1022.56
2023-05-01T05:18:48.876Z,1022.58
2023-05-01T05:19:48.879Z,1022.58
2023-05-01T05:20:48.868Z,1022.56
2023-05-01T05:21:48.862Z,1022.5
2023-05-01T05:22:48.865Z,1022.48
2023-05-01T05:23:48.883Z,1022.52
2023-05-01T05:24:48.873Z,1022.49
2023-05-01T05:25:48.870Z,1022.49
2023-05-01T05:26:48.870Z,1022.45
2023-05-01T05:27:48.865Z,1022.42
2023-05-01T05:28:48.869Z,1022.41
2023-05-01T05:29:48.904Z,1022.43
2023-05-01T05:30:48.869Z,1022.43
2023-05-01T05:31:48.896Z,1022.41
2023-05-01T05:32:48.883Z,1022.36
2023-05-01T05:33:48.887Z,1022.37
2023-05-01T05:34:48.877Z,1022.4
2023-05-01T05:35:48.874Z,1022.36
2023-05-01T05:36:48.867Z,1022.36
2023-05-01T05:37:48.869Z,1022.4
2023-05-01T05:38:48.885Z,1022.36
2023-05-01T05:39:48.877Z,1022.41
2023-05-01T05:40:48.871Z,1022.41
2023-05-01T05:41:48.870Z,1022.42
2023-05-01T05:42:48.870Z,1022.37
2023-05-01T05:43:48.873Z,1022.37
2023-05-01T05:44:48.868Z,1022.43
2023-05-01T05:45:48.924Z,1022.35
2023-05-01T05:46:48.876Z,1022.36
2023-05-01T05:47:48.911Z,1022.37
2023-05-01T05:48:48.868Z,1022.43
2023-05-01T05:49:48.880Z,1022.36
2023-05-01T05:50:48.855Z,1022.37
2023-05-01T05:51:48.868Z,1022.59
2023-05-01T05:52:48.865Z,1022.38
2023-05-01T05:53:48.897Z,1022.42
2023-05-01T05:54:48.879Z,1022.33
2023-05-01T05:55:48.863Z,1022.38
2023-05-01T05:56:48.870Z,1022.37
2023-05-01T05:57:48.868Z,1022.35
2023-05-01T05:58:48.868Z,1022.41
2023-05-01T05:59:48.883Z,1022.54
2023-05-01T06:00:48.876Z,1022.37
2023-05-01T06:01:48.862Z,1022.35
2023-05-01T06:02:48.992Z,1022.49
2023-05-01T06:03:48.905Z,1022.49
2023-05-01T06:04:48.877Z,1022.37
2023-05-01T06:05:48.938Z,1022.32
2023-05-01T06:06:48.980Z,1022.29
2023-05-01T06:07:48.887Z,1022.33
2023-05-01T06:08:49.036Z,1022.27
2023-05-01T06:09:48.879Z,1022.34
2023-05-01T06:10:48.870Z,1022.43
2023-05-01T06:11:48.871Z,1022.33
2023-05-01T06:12:52.021Z,1022.22
2023-05-01T06:13:48.870Z,1022.3
2023-05-01T06:14:48.885Z,1022.31
2023-05-01T06:15:48.952Z,1022.22
2023-05-01T06:16:48.872Z,1022.26
2023-05-01T06:17:48.897Z,1022.29
2023-05-01T06:18:48.874Z,1022.23
2023-05-01T06:19:48.887Z,1022.28
2023-05-01T06:20:48.872Z,1022.3
2023-05-01T06:21:48.882Z,1022.28
2023-05-01T06:22:48.874Z,1022.19
2023-05-01T06:23:48.885Z,1022.22
2023-05-01T06:24:48.881Z,1022.21
2023-05-01T06:25:48.883Z,1022.23
2023-05-01T06:26:48.868Z,1022.21
2023-05-01T06:27:48.875Z,1022.22
2023-05-01T06:28:48.874Z,1022.14
2023-05-01T06:29:48.875Z,1022.11
2023-05-01T06:30:48.873Z,1022.3
2023-05-01T06:31:48.888Z,1022.19
2023-05-01T06:32:48.949Z,1022.15
2023-05-01T06:33:48.864Z,1022.2
2023-05-01T06:34:48.879Z,1022.21
2023-05-01T06:35:48.869Z,1022.09
2023-05-01T06:36:48.862Z,1022.17
2023-05-01T06:37:48.861Z,1022.08
2023-05-01T06:38:48.976Z,1022.15
2023-05-01T06:39:48.871Z,1022.12
2023-05-01T06:40:48.861Z,1022.03
2023-05-01T06:41:48.869Z,1022.1
2023-05-01T06:42:48.878Z,1022.12
2023-05-01T06:43:48.863Z,1022.1
2023-05-01T06:44:48.863Z,1022.08
2023-05-01T06:45:48.879Z,1022.08
2023-05-01T06:46:48.926Z,1022.04
2023-05-01T06:47:48.888Z,1021.98
2023-05-01T06:48:48.862Z,1022.02
2023-05-01T06:49:48.873Z,1022.09
2023-05-01T06:50:48.869Z,1021.91
2023-05-01T06:51:48.871Z,1021.96
2023-05-01T06:52:48.873Z,1021.94
2023-05-01T06:53:48.889Z,1022.12
2023-05-01T06:54:48.872Z,1021.87
2023-05-01T06:55:48.861Z,1022.02
2023-05-01T06:56:48.871Z,1021.95
2023-05-01T06:57:48.858Z,1022
2023-05-01T06:58:48.866Z,1021.97
2023-05-01T06:59:48.875Z,1022
2023-05-01T07:00:48.874Z,1022.02
2023-05-01T07:01:48.875Z,1021.91
2023-05-01T07:02:49.041Z,1021.91
2023-05-01T07:03:48.879Z,1021.91
2023-05-01T07:04:48.871Z,1021.92
2023-05-01T07:05:48.877Z,1021.79
2023-05-01T07:06:48.904Z,1021.96
2023-05-01T07:07:57.936Z,1021.87
2023-05-01T07:08:48.886Z,1021.82
2023-05-01T07:09:48.873Z,1021.75
2023-05-01T07:10:48.870Z,1021.76
2023-05-01T07:11:48.865Z,1021.74
2023-05-01T07:12:48.879Z,1021.77
2023-05-01T07:13:48.875Z,1021.83
2023-05-01T07:14:48.879Z,1021.82
2023-05-01T07:15:48.875Z,1021.71
2023-05-01T07:16:48.915Z,1021.75
2023-05-01T07:17:48.898Z,1021.77
2023-05-01T07:18:48.876Z,1021.79
2023-05-01T07:19:48.874Z,1021.88
2023-05-01T07:20:48.870Z,1021.95
2023-05-01T07:21:48.871Z,1021.71
2023-05-01T07:22:48.874Z,1021.87
2023-05-01T07:23:48.893Z,1021.75
2023-05-01T07:24:48.883Z,1021.6
2023-05-01T07:25:48.872Z,1021.62
2023-05-01T07:26:48.880Z,1021.64
2023-05-01T07:27:48.879Z,1021.53
2023-05-01T07:28:48.869Z,1021.64
2023-05-01T07:29:48.875Z,1021.55
2023-05-01T07:30:48.868Z,1021.65
2023-05-01T07:31:48.927Z,1021.67
2023-05-01T07:32:48.931Z,1021.56
2023-05-01T07:33:48.892Z,1021.58
2023-05-01T07:34:48.890Z,1021.55
2023-05-01T07:35:48.876Z,1021.54
2023-05-01T07:36:48.877Z,1021.56
2023-05-01T07:37:48.874Z,1021.56
2023-05-01T07:38:49.053Z,1021.56
2023-05-01T07:39:48.873Z,1021.58
2023-05-01T07:40:48.861Z,1021.61
2023-05-01T07:41:48.876Z,1021.58
2023-05-01T07:42:48.868Z,1021.57
2023-05-01T07:43:48.853Z,1021.5
2023-05-01T07:44:48.876Z,1021.49
2023-05-01T07:45:48.903Z,1021.51
2023-05-01T07:46:48.862Z,1021.48
2023-05-01T07:47:48.908Z,1021.51
2023-05-01T07:48:48.869Z,1021.57
2023-05-01T07:49:48.899Z,1021.47
2023-05-01T07:50:48.881Z,1021.43
2023-05-01T07:51:48.859Z,1021.47
2023-05-01T07:52:48.876Z,1021.44
2023-05-01T07:53:48.894Z,1021.5
2023-05-01T07:54:48.883Z,1021.53
2023-05-01T07:55:48.869Z,1021.44
2023-05-01T07:56:49.847Z,1021.49
2023-05-01T07:57:48.869Z,1021.43
2023-05-01T07:58:48.867Z,1021.45
2023-05-01T07:59:48.878Z,1021.53
2023-05-01T08:00:48.875Z,1021.43
2023-05-01T08:01:48.869Z,1021.34
2023-05-01T08:02:48.904Z,1021.43
2023-05-01T08:03:50.915Z,1021.43
2023-05-01T08:04:48.916Z,1021.38
2023-05-01T08:05:48.863Z,1021.27
2023-05-01T08:06:48.926Z,1021.37
2023-05-01T08:07:48.859Z,1021.33
2023-05-01T08:08:48.878Z,1021.33
2023-05-01T08:09:48.880Z,1021.32
2023-05-01T08:10:48.875Z,1021.4
2023-05-01T08:11:48.858Z,1021.24
2023-05-01T08:12:48.869Z,1021.2
2023-05-01T08:13:48.864Z,1021.26
2023-05-01T08:14:48.874Z,1021.22
2023-05-01T08:15:48.909Z,1021.21
2023-05-01T08:16:48.905Z,1021.2
2023-05-01T08:17:48.953Z,1021.16
2023-05-01T08:18:48.877Z,1021.3
2023-05-01T08:19:48.874Z,1021.18
2023-05-01T08:20:48.930Z,1021.25
2023-05-01T08:21:48.880Z,1021.15
2023-05-01T08:22:48.871Z,1021.19
2023-05-01T08:23:48.894Z,1021.1
2023-05-01T08:24:48.872Z,1021.08
2023-05-01T08:25:48.872Z,1021.06
2023-05-01T08:26:48.900Z,1021.04
2023-05-01T08:27:48.872Z,1020.99
2023-05-01T08:28:48.881Z,1021.03
2023-05-01T08:29:48.881Z,1020.98
2023-05-01T08:30:48.878Z,1021.17
2023-05-01T08:31:48.926Z,1021.07
2023-05-01T08:32:48.903Z,1021.18
2023-05-01T08:33:48.867Z,1021.14
2023-05-01T08:34:48.902Z,1021.07
2023-05-01T08:35:48.878Z,1021.08
2023-05-01T08:36:48.861Z,1021.06
2023-05-01T08:37:48.874Z,1021.01
2023-05-01T08:38:48.887Z,1021.08
2023-05-01T08:39:48.891Z,1021.07
2023-05-01T08:40:48.864Z,1021.17
2023-05-01T08:41:59.976Z,1021.03
2023-05-01T08:42:58.794Z,1021.05
2023-05-01T08:43:58.775Z,1021.06
2023-05-01T08:44:58.779Z,1020.99
2023-05-01T08:45:58.751Z,1021.12
2023-05-01T08:47:05.588Z,1021.09
2023-05-01T08:48:04.545Z,1021.08
2023-05-01T08:49:04.434Z,1021.09
2023-05-01T08:50:04.452Z,1021.1
2023-05-01T08:51:04.433Z,1021.05
2023-05-01T08:52:04.448Z,1021.08
2023-05-01T08:53:04.446Z,1021.04
2023-05-01T08:54:04.461Z,1021.01
2023-05-01T08:55:04.425Z,1020.97
2023-05-01T08:56:04.433Z,1021.02
2023-05-01T08:57:04.434Z,1021.04
2023-05-01T08:58:04.417Z,1021.02
2023-05-01T08:59:04.422Z,1020.99
2023-05-01T09:00:04.462Z,1020.99
2023-05-01T09:01:04.441Z,1021.12
2023-05-01T09:02:04.499Z,1021.03
2023-05-01T09:03:04.488Z,1021.03
2023-05-01T09:04:04.515Z,1021.03
2023-05-01T09:05:04.425Z,1020.93
2023-05-01T09:06:04.428Z,1020.93
2023-05-01T09:07:04.409Z,1021.02
2023-05-01T09:08:04.434Z,1021.17
2023-05-01T09:09:04.579Z,1020.97
2023-05-01T09:10:04.422Z,1021.1
2023-05-01T09:11:04.462Z,1020.97
2023-05-01T09:12:04.427Z,1021.02
2023-05-01T09:13:04.429Z,1021.02
2023-05-01T09:14:04.419Z,1021.03
2023-05-01T09:15:04.458Z,1020.91
2023-05-01T09:16:04.467Z,1020.96
2023-05-01T09:17:04.411Z,1020.92
2023-05-01T09:18:04.523Z,1020.95
2023-05-01T09:19:04.421Z,1020.85
2023-05-01T09:20:04.448Z,1020.83
2023-05-01T09:21:04.422Z,1020.81
2023-05-01T09:22:04.426Z,1020.88
2023-05-01T09:23:04.430Z,1020.8
2023-05-01T09:24:04.447Z,1020.83
2023-05-01T09:25:04.464Z,1020.81
2023-05-01T09:26:04.415Z,1020.77
2023-05-01T09:27:04.416Z,1020.75
2023-05-01T09:28:04.494Z,1020.7
2023-05-01T09:29:04.412Z,1020.88
2023-05-01T09:30:04.421Z,1020.74
2023-05-01T09:31:04.427Z,1020.87
2023-05-01T09:32:04.463Z,1020.66
2023-05-01T09:33:04.526Z,1020.7
2023-05-01T09:34:04.424Z,1020.64
2023-05-01T09:35:04.429Z,1020.64
2023-05-01T09:36:04.434Z,1020.64
2023-05-01T09:37:04.426Z,1020.56
2023-05-01T09:38:04.447Z,1020.6
2023-05-01T09:39:04.462Z,1020.58
2023-05-01T09:40:04.439Z,1020.59
2023-05-01T09:41:04.427Z,1020.5
2023-05-01T09:42:04.421Z,1020.43
2023-05-01T09:43:04.407Z,1020.45
2023-05-01T09:44:04.419Z,1020.57
2023-05-01T09:45:04.426Z,1020.42
2023-05-01T09:46:04.521Z,1020.45
2023-05-01T09:47:04.429Z,1020.48
2023-05-01T09:48:04.482Z,1020.44
2023-05-01T09:49:04.413Z,1020.45
2023-05-01T09:50:04.462Z,1020.39
2023-05-01T09:51:04.409Z,1020.4
2023-05-01T09:52:04.414Z,1020.4
2023-05-01T09:53:04.427Z,1020.48
2023-05-01T09:54:04.436Z,1020.36
2023-05-01T09:55:04.424Z,1020.54
2023-05-01T09:56:04.412Z,1020.37
2023-05-01T09:57:04.425Z,1020.34
2023-05-01T09:58:04.412Z,1020.35
2023-05-01T09:59:04.414Z,1020.34
2023-05-01T10:00:04.426Z,1020.44
2023-05-01T10:01:04.490Z,1020.36
2023-05-01T10:02:04.450Z,1020.28
2023-05-01T10:03:05.351Z,1020.28
2023-05-01T10:04:04.460Z,1020.28
2023-05-01T10:05:04.424Z,1020.33
2023-05-01T10:06:04.496Z,1020.32
2023-05-01T10:07:04.455Z,1020.26
2023-05-01T10:08:04.422Z,1020.33
2023-05-01T10:09:04.452Z,1020.23
2023-05-01T10:10:04.700Z,1020.2
2023-05-01T10:11:04.418Z,1020.24
2023-05-01T10:12:04.427Z,1020.21
2023-05-01T10:13:04.424Z,1020.31
2023-05-01T10:14:04.420Z,1020.21
2023-05-01T10:15:17.291Z,1020.29
2023-05-01T10:16:04.429Z,1020.33
2023-05-01T10:17:04.458Z,1020.22
2023-05-01T10:18:04.486Z,1020.16
2023-05-01T10:19:04.723Z,1020.06
2023-05-01T10:20:04.428Z,1020.03
2023-05-01T10:21:04.426Z,1020.01
2023-05-01T10:22:04.435Z,1019.99
2023-05-01T10:23:04.429Z,1020.04
2023-05-01T10:24:04.435Z,1020.01
2023-05-01T10:25:04.434Z,1020
2023-05-01T10:26:05.274Z,1020.02
2023-05-01T10:27:04.425Z,1020.06
2023-05-01T10:28:04.427Z,1020.01
2023-05-01T10:29:04.437Z,1020.02
2023-05-01T10:30:04.439Z,1019.96
2023-05-01T10:31:04.441Z,1019.98
2023-05-01T10:32:04.511Z,1019.9
2023-05-01T10:33:04.506Z,1019.86
2023-05-01T10:34:04.430Z,1019.92
2023-05-01T10:35:04.436Z,1019.8
2023-05-01T10:36:04.442Z,1019.82
2023-05-01T10:37:04.421Z,1019.74
2023-05-01T10:38:04.409Z,1019.74
2023-05-01T10:39:04.444Z,1019.7
2023-05-01T10:40:04.424Z,1019.76
2023-05-01T10:41:04.449Z,1019.75
2023-05-01T10:42:04.424Z,1019.73
2023-05-01T10:43:04.432Z,1019.68
2023-05-01T10:44:04.411Z,1019.69
2023-05-01T10:45:04.425Z,1019.71
2023-05-01T10:46:04.438Z,1019.72
2023-05-01T10:47:04.421Z,1019.66
2023-05-01T10:48:04.452Z,1019.64
2023-05-01T10:49:04.409Z,1019.69
2023-05-01T10:50:04.495Z,1019.61
2023-05-01T10:51:04.424Z,1019.61
2023-05-01T10:52:04.419Z,1019.67
2023-05-01T10:53:04.413Z,1019.71
2023-05-01T10:54:04.437Z,1019.68
2023-05-01T10:55:04.612Z,1019.61
2023-05-01T10:56:04.421Z,1019.63
2023-05-01T10:57:04.424Z,1019.63
2023-05-01T10:58:04.422Z,1019.64
2023-05-01T10:59:04.438Z,1019.71
2023-05-01T11:00:04.425Z,1019.58
2023-05-01T11:01:04.421Z,1019.61
2023-05-01T11:02:04.492Z,1019.49
2023-05-01T11:03:04.430Z,1019.51
2023-05-01T11:04:04.426Z,1019.51
2023-05-01T11:05:04.482Z,1019.42
2023-05-01T11:06:04.529Z,1019.51
2023-05-01T11:07:04.480Z,1019.42
2023-05-01T11:08:04.432Z,1019.42
2023-05-01T11:09:04.484Z,1019.36
2023-05-01T11:10:04.438Z,1019.43
2023-05-01T11:11:04.419Z,1019.46
2023-05-01T11:12:04.406Z,1019.36
2023-05-01T11:13:04.424Z,1019.33
2023-05-01T11:14:04.451Z,1019.39
2023-05-01T11:15:04.430Z,1019.4
2023-05-01T11:16:04.429Z,1019.35
2023-05-01T11:17:04.428Z,1019.31
2023-05-01T11:18:04.452Z,1019.32
2023-05-01T11:19:04.429Z,1019.27
2023-05-01T11:20:04.435Z,1019.23
2023-05-01T11:21:04.437Z,1019.27
2023-05-01T11:22:04.419Z,1019.23
2023-05-01T11:23:04.430Z,1019.17
2023-05-01T11:24:04.454Z,1019.11
2023-05-01T11:25:04.423Z,1019.06
2023-05-01T11:26:04.425Z,1019.05
2023-05-01T11:27:04.430Z,1018.97
2023-05-01T11:28:04.426Z,1019.04
2023-05-01T11:29:04.430Z,1019.03
2023-05-01T11:30:04.430Z,1018.95
2023-05-01T11:31:04.448Z,1019
2023-05-01T11:32:04.481Z,1019.02
2023-05-01T11:33:04.488Z,1018.98
2023-05-01T11:34:04.439Z,1018.93
2023-05-01T11:35:04.432Z,1018.91
2023-05-01T11:36:04.420Z,1018.94
2023-05-01T11:37:04.453Z,1018.88
2023-05-01T11:38:04.433Z,1018.92
2023-05-01T11:39:04.436Z,1018.91
2023-05-01T11:40:04.421Z,1018.87
2023-05-01T11:41:04.419Z,1018.83
2023-05-01T11:42:04.436Z,1018.83
2023-05-01T11:43:04.426Z,1018.75
2023-05-01T11:44:04.422Z,1018.77
2023-05-01T11:45:04.432Z,1018.92
2023-05-01T11:46:04.530Z,1018.77
2023-05-01T11:47:04.422Z,1018.82
2023-05-01T11:48:05.184Z,1018.75
2023-05-01T11:49:04.413Z,1018.78
2023-05-01T11:50:04.418Z,1018.77
2023-05-01T11:51:04.408Z,1018.8
2023-05-01T11:52:04.425Z,1018.75
2023-05-01T11:53:04.425Z,1018.7
2023-05-01T11:54:04.442Z,1018.7
2023-05-01T11:55:04.569Z,1018.7
2023-05-01T11:56:13.255Z,1018.63
2023-05-01T11:57:04.418Z,1018.63
2023-05-01T11:58:04.418Z,1018.65
2023-05-01T11:59:04.434Z,1018.63
2023-05-01T12:00:04.415Z,1018.56
2023-05-01T12:01:04.420Z,1018.55
2023-05-01T12:02:04.479Z,1018.59
2023-05-01T12:03:04.637Z,1018.54
2023-05-01T12:04:04.558Z,1018.54
2023-05-01T12:05:04.509Z,1018.53
2023-05-01T12:06:04.454Z,1018.6
2023-05-01T12:07:04.416Z,1018.6
2023-05-01T12:08:04.419Z,1018.5
2023-05-01T12:09:04.437Z,1018.46